Time;durP1;ratioP1;P1;durP2;ratioP2;P2;SDS_P1;SDS_P2;PMS_P1;PMS_P2;Temp;Humidity;BMP_temperature;BMP_pressure;BME280_temperature;BME280_humidity;BME280_pressure;Samples;Min_cycle;Max_cycle;Signal;HPM_P1;HPM_P2
2021/10/20 00:01:43;;;;;;;7.65;4.20;;;;;;;;;;5089836;28;20395;-80
2021/10/20 00:04:09;;;;;;;9.02;4.18;;;;;;;;;;5084846;28;20088;-79
2021/10/20 00:06:34;;;;;;;5.20;3.60;;;;;;;;;;5081037;28;21786;-80
2021/10/20 00:08:59;;;;;;;6.25;4.10;;;;;;;;;;5070707;28;20115;-80
2021/10/20 00:11:25;;;;;;;6.40;3.80;;;;;;;;;;5086695;28;20452;-79
2021/10/20 00:13:51;;;;;;;5.82;3.85;;;;;;;;;;5089197;28;20055;-80
2021/10/20 00:16:17;;;;;;;6.97;3.97;;;;;;;;;;5089382;28;20042;-79
2021/10/20 00:18:48;;;;;;;5.70;4.20;;;;;;;;;;5070639;28;20036;-80
2021/10/20 00:21:15;;;;;;;6.50;4.18;;;;;;;;;;5076692;28;20036;-80
2021/10/20 00:23:40;;;;;;;6.57;3.83;;;;;;;;;;5091649;28;20029;-80
2021/10/20 00:26:05;;;;;;;5.75;3.92;;;;;;;;;;5077534;28;20035;-79
2021/10/20 00:28:31;;;;;;;7.55;4.22;;;;;;;;;;5080822;28;20028;-80
2021/10/20 00:30:56;;;;;;;5.30;3.75;;;;;;;;;;5087459;28;20032;-79
2021/10/20 00:33:22;;;;;;;5.57;3.80;;;;;;;;;;5085042;28;20024;-80
2021/10/20 00:35:47;;;;;;;7.00;3.75;;;;;;;;;;5087881;28;20500;-80
2021/10/20 00:38:12;;;;;;;7.10;4.00;;;;;;;;;;5082980;28;20159;-80
2021/10/20 00:40:38;;;;;;;7.15;3.95;;;;;;;;;;5088084;28;20605;-79
2021/10/20 00:43:03;;;;;;;5.60;3.85;;;;;;;;;;5062480;28;20026;-80
2021/10/20 00:45:29;;;;;;;7.35;4.03;;;;;;;;;;5072834;28;20036;-80
2021/10/20 00:47:54;;;;;;;7.65;4.03;;;;;;;;;;5086924;28;20035;-80
2021/10/20 00:50:20;;;;;;;5.70;3.67;;;;;;;;;;5086005;28;20039;-80
2021/10/20 00:52:45;;;;;;;6.30;3.80;;;;;;;;;;5072433;28;20056;-80
2021/10/20 00:55:12;;;;;;;6.22;3.85;;;;;;;;;;5079918;28;20122;-79
2021/10/20 00:57:39;;;;;;;5.32;3.58;;;;;;;;;;5091876;28;20388;-80
2021/10/20 01:00:08;;;;;;;5.68;3.63;;;;;;;;;;5080339;28;20047;-80
2021/10/20 01:02:35;;;;;;;5.30;3.80;;;;;;;;;;5081639;28;20780;-80
2021/10/20 01:05:02;;;;;;;7.30;4.05;;;;;;;;;;5079213;28;20019;-80
2021/10/20 01:07:28;;;;;;;7.18;3.92;;;;;;;;;;5080287;28;20048;-79
2021/10/20 01:09:54;;;;;;;7.57;4.00;;;;;;;;;;5085546;28;20089;-80
2021/10/20 01:12:20;;;;;;;7.63;3.90;;;;;;;;;;5077027;28;20040;-80
2021/10/20 01:14:46;;;;;;;6.10;4.05;;;;;;;;;;5086341;28;20467;-80
2021/10/20 01:17:12;;;;;;;5.97;3.92;;;;;;;;;;5086517;28;20021;-80
2021/10/20 01:19:40;;;;;;;6.63;3.58;;;;;;;;;;5093349;28;20035;-80
2021/10/20 01:22:06;;;;;;;9.50;3.92;;;;;;;;;;5090081;28;20027;-80
2021/10/20 01:24:32;;;;;;;5.35;3.95;;;;;;;;;;5084316;28;20413;-80
2021/10/20 01:26:58;;;;;;;5.80;3.85;;;;;;;;;;5094271;28;20036;-80
2021/10/20 01:29:23;;;;;;;6.78;3.75;;;;;;;;;;5095171;28;20096;-80
2021/10/20 01:31:52;;;;;;;5.47;3.95;;;;;;;;;;5081069;28;20021;-80
2021/10/20 01:34:18;;;;;;;18.95;4.93;;;;;;;;;;5085984;28;20154;-80
2021/10/20 01:36:43;;;;;;;5.88;3.90;;;;;;;;;;5079993;28;20113;-80
2021/10/20 01:39:10;;;;;;;7.07;3.78;;;;;;;;;;5089707;28;20072;-80
2021/10/20 01:41:37;;;;;;;6.75;4.00;;;;;;;;;;5088633;28;20032;-80
2021/10/20 01:44:03;;;;;;;8.30;4.10;;;;;;;;;;5085817;28;20521;-80
2021/10/20 01:46:29;;;;;;;5.93;4.00;;;;;;;;;;5056198;28;20440;-80
2021/10/20 01:48:54;;;;;;;5.10;3.88;;;;;;;;;;5089815;28;20050;-80
2021/10/20 01:51:20;;;;;;;6.55;3.92;;;;;;;;;;5085464;28;20594;-80
2021/10/20 01:53:45;;;;;;;6.40;3.80;;;;;;;;;;5082800;28;20063;-80
2021/10/20 01:56:12;;;;;;;5.32;3.58;;;;;;;;;;5087161;28;20042;-80
2021/10/20 01:58:39;;;;;;;5.72;4.18;;;;;;;;;;5079158;28;20484;-80
2021/10/20 02:01:07;;;;;;;5.35;3.75;;;;;;;;;;5057934;28;20024;-80
2021/10/20 02:03:35;;;;;;;5.88;3.78;;;;;;;;;;5081437;28;20030;-80
2021/10/20 02:06:02;;;;;;;6.60;3.75;;;;;;;;;;5082663;28;20035;-80
2021/10/20 02:08:27;;;;;;;5.03;3.72;;;;;;;;;;5091019;28;20084;-80
2021/10/20 02:10:53;;;;;;;6.18;4.07;;;;;;;;;;5090309;28;20484;-79
2021/10/20 02:13:18;;;;;;;6.55;3.97;;;;;;;;;;5090729;28;20075;-79
2021/10/20 02:15:44;;;;;;;6.25;3.83;;;;;;;;;;5057997;28;20036;-79
2021/10/20 02:18:09;;;;;;;7.20;4.30;;;;;;;;;;5101109;28;20028;-80
2021/10/20 02:20:35;;;;;;;7.07;3.95;;;;;;;;;;5089423;28;20028;-80
2021/10/20 02:23:00;;;;;;;5.90;3.85;;;;;;;;;;5089015;28;20044;-80
2021/10/20 02:25:25;;;;;;;7.13;3.80;;;;;;;;;;5084694;28;20035;-80
2021/10/20 02:27:51;;;;;;;6.43;3.97;;;;;;;;;;5097663;28;20029;-80
2021/10/20 02:30:17;;;;;;;5.68;4.00;;;;;;;;;;5071818;28;20169;-80
2021/10/20 02:32:43;;;;;;;6.00;3.92;;;;;;;;;;5091659;28;20480;-80
2021/10/20 02:35:09;;;;;;;8.15;3.90;;;;;;;;;;5085018;28;20024;-80
2021/10/20 02:37:36;;;;;;;5.32;3.80;;;;;;;;;;5085371;28;20032;-80
2021/10/20 02:40:06;;;;;;;6.28;3.90;;;;;;;;;;5099619;28;20032;-80
2021/10/20 02:42:31;;;;;;;5.28;3.75;;;;;;;;;;5091773;28;20032;-80
2021/10/20 02:44:57;;;;;;;5.55;4.07;;;;;;;;;;5081614;28;20097;-80
2021/10/20 02:47:22;;;;;;;6.20;3.97;;;;;;;;;;5083616;28;20040;-80
2021/10/20 02:49:48;;;;;;;6.03;3.88;;;;;;;;;;5088819;28;20030;-80
2021/10/20 02:52:13;;;;;;;6.85;3.97;;;;;;;;;;5080169;28;20040;-79
2021/10/20 02:54:40;;;;;;;7.32;4.20;;;;;;;;;;5089332;28;20037;-80
2021/10/20 02:57:05;;;;;;;7.28;4.05;;;;;;;;;;5099207;28;20412;-80
2021/10/20 02:59:31;;;;;;;7.90;4.55;;;;;;;;;;5090125;28;20036;-80
2021/10/20 03:01:56;;;;;;;5.57;4.30;;;;;;;;;;5082134;28;20024;-80
2021/10/20 03:04:22;;;;;;;7.50;3.88;;;;;;;;;;5080617;28;20115;-80
2021/10/20 03:06:47;;;;;;;8.15;4.43;;;;;;;;;;5093789;28;20056;-79
2021/10/20 03:09:13;;;;;;;8.02;4.28;;;;;;;;;;5088052;28;20036;-79
2021/10/20 03:11:38;;;;;;;6.72;4.35;;;;;;;;;;5082773;28;20040;-80
2021/10/20 03:14:04;;;;;;;7.38;4.38;;;;;;;;;;5083743;28;20036;-80
2021/10/20 03:16:29;;;;;;;6.82;4.47;;;;;;;;;;5082208;28;20040;-80
2021/10/20 03:18:55;;;;;;;7.28;4.43;;;;;;;;;;5061310;28;20494;-80
2021/10/20 03:21:21;;;;;;;6.78;4.65;;;;;;;;;;5080703;28;20032;-80
2021/10/20 03:23:46;;;;;;;6.95;4.60;;;;;;;;;;5090834;28;20055;-80
2021/10/20 03:26:12;;;;;;;7.45;4.18;;;;;;;;;;5075173;28;20034;-79
2021/10/20 03:28:38;;;;;;;7.43;5.07;;;;;;;;;;5067394;28;20098;-80
2021/10/20 03:31:03;;;;;;;6.15;4.30;;;;;;;;;;5088933;28;20063;-80
2021/10/20 03:33:29;;;;;;;7.35;4.50;;;;;;;;;;5092073;28;21215;-80
2021/10/20 03:35:54;;;;;;;7.95;4.50;;;;;;;;;;5087452;28;20047;-79
2021/10/20 03:38:20;;;;;;;6.18;4.35;;;;;;;;;;5089316;28;20032;-80
2021/10/20 03:40:45;;;;;;;7.20;4.40;;;;;;;;;;5091531;28;20032;-80
2021/10/20 03:43:11;;;;;;;9.30;4.60;;;;;;;;;;5074657;28;20084;-79
2021/10/20 03:45:36;;;;;;;6.88;4.38;;;;;;;;;;5081310;28;20078;-80
2021/10/20 03:48:02;;;;;;;8.93;4.72;;;;;;;;;;5095352;28;20392;-80
2021/10/20 03:50:27;;;;;;;8.05;4.80;;;;;;;;;;5095225;28;20036;-79
2021/10/20 03:52:53;;;;;;;8.10;4.72;;;;;;;;;;5075447;28;20035;-79
2021/10/20 03:55:18;;;;;;;6.63;4.50;;;;;;;;;;5097368;28;20092;-80
2021/10/20 03:57:44;;;;;;;9.50;4.78;;;;;;;;;;5085707;28;20055;-80
2021/10/20 04:00:12;;;;;;;8.40;4.38;;;;;;;;;;5093579;28;20048;-79
2021/10/20 04:02:42;;;;;;;7.90;4.30;;;;;;;;;;5092214;28;20082;-80
2021/10/20 04:05:09;;;;;;;9.38;4.57;;;;;;;;;;5094259;28;20089;-80
2021/10/20 04:07:37;;;;;;;7.80;4.20;;;;;;;;;;5074040;28;20040;-80
2021/10/20 04:10:03;;;;;;;8.05;4.47;;;;;;;;;;5092256;28;20077;-79
2021/10/20 04:12:29;;;;;;;9.88;4.90;;;;;;;;;;5086400;28;20040;-80
2021/10/20 04:14:54;;;;;;;6.93;4.28;;;;;;;;;;5086146;28;20036;-79
2021/10/20 04:17:19;;;;;;;7.07;4.57;;;;;;;;;;5076318;28;20032;-79
2021/10/20 04:19:45;;;;;;;6.93;4.65;;;;;;;;;;5086968;28;20035;-80
2021/10/20 04:22:10;;;;;;;7.07;4.70;;;;;;;;;;5087358;28;20504;-79
2021/10/20 04:24:36;;;;;;;6.68;4.38;;;;;;;;;;5072358;28;20119;-80
2021/10/20 04:27:01;;;;;;;6.28;4.22;;;;;;;;;;5088494;28;20032;-80
2021/10/20 04:29:26;;;;;;;7.32;4.50;;;;;;;;;;5089514;28;20046;-80
2021/10/20 04:31:52;;;;;;;10.90;4.75;;;;;;;;;;5081668;28;20035;-79
2021/10/20 04:34:17;;;;;;;6.07;4.38;;;;;;;;;;5085743;28;20032;-79
2021/10/20 04:36:43;;;;;;;8.25;4.80;;;;;;;;;;5073604;28;20484;-80
2021/10/20 04:39:09;;;;;;;6.82;4.25;;;;;;;;;;5086242;28;20028;-80
2021/10/20 04:41:34;;;;;;;14.02;5.03;;;;;;;;;;5077851;28;20490;-79
2021/10/20 04:44:00;;;;;;;6.57;4.60;;;;;;;;;;5083859;28;20063;-80
2021/10/20 04:46:25;;;;;;;8.65;5.00;;;;;;;;;;5075767;28;20389;-79
2021/10/20 04:48:51;;;;;;;9.30;4.57;;;;;;;;;;5080229;28;20036;-79
2021/10/20 04:51:16;;;;;;;7.97;4.97;;;;;;;;;;5090168;28;20040;-80
2021/10/20 04:53:42;;;;;;;7.35;5.00;;;;;;;;;;5096228;28;20039;-79
2021/10/20 04:56:07;;;;;;;8.57;5.05;;;;;;;;;;5086505;28;20803;-80
2021/10/20 04:58:33;;;;;;;7.85;4.72;;;;;;;;;;5090543;28;20445;-80
2021/10/20 05:00:58;;;;;;;7.88;4.68;;;;;;;;;;5085403;28;20035;-80
2021/10/20 05:03:23;;;;;;;10.73;4.72;;;;;;;;;;5097956;28;20150;-79
2021/10/20 05:05:49;;;;;;;7.32;4.53;;;;;;;;;;5071046;28;20040;-80
2021/10/20 05:08:14;;;;;;;7.43;4.63;;;;;;;;;;5083830;28;20049;-80
2021/10/20 05:10:40;;;;;;;6.72;4.30;;;;;;;;;;5068628;28;20038;-79
2021/10/20 05:13:05;;;;;;;7.03;4.88;;;;;;;;;;5070352;28;20070;-79
2021/10/20 05:15:31;;;;;;;8.25;5.13;;;;;;;;;;5078844;28;20027;-79
2021/10/20 05:17:56;;;;;;;7.53;4.82;;;;;;;;;;5073223;28;20046;-80
2021/10/20 05:20:22;;;;;;;5.97;4.18;;;;;;;;;;5086481;28;20028;-80
2021/10/20 05:22:48;;;;;;;9.45;4.82;;;;;;;;;;5091654;28;20548;-79
2021/10/20 05:25:16;;;;;;;8.18;4.70;;;;;;;;;;5100530;28;20031;-80
2021/10/20 05:27:43;;;;;;;7.97;4.47;;;;;;;;;;5093686;28;20560;-80
2021/10/20 05:30:10;;;;;;;7.65;5.13;;;;;;;;;;5096667;28;20020;-79
2021/10/20 05:32:36;;;;;;;8.82;4.68;;;;;;;;;;5086902;28;20403;-80
2021/10/20 05:35:01;;;;;;;7.57;4.60;;;;;;;;;;5079317;28;20036;-79
2021/10/20 05:37:27;;;;;;;5.88;4.53;;;;;;;;;;5093114;28;20026;-79
2021/10/20 05:39:53;;;;;;;6.65;4.68;;;;;;;;;;5084237;28;20456;-79
2021/10/20 05:42:19;;;;;;;8.70;5.07;;;;;;;;;;5057096;28;20033;-80
2021/10/20 05:44:45;;;;;;;8.07;4.82;;;;;;;;;;5086499;28;20033;-80
2021/10/20 05:47:11;;;;;;;7.32;5.10;;;;;;;;;;5096307;28;20032;-80
2021/10/20 05:49:36;;;;;;;7.63;4.80;;;;;;;;;;5092063;28;20024;-79
2021/10/20 05:52:03;;;;;;;7.05;4.80;;;;;;;;;;5102948;28;20023;-80
2021/10/20 05:54:30;;;;;;;8.43;4.85;;;;;;;;;;5082863;28;20031;-79
2021/10/20 05:56:55;;;;;;;8.35;5.10;;;;;;;;;;5096641;28;20450;-80
2021/10/20 05:59:22;;;;;;;7.80;4.95;;;;;;;;;;5078478;28;20036;-80
2021/10/20 06:01:49;;;;;;;10.35;4.70;;;;;;;;;;5076001;28;20032;-80
2021/10/20 06:04:15;;;;;;;7.13;4.57;;;;;;;;;;5088984;28;20024;-79
2021/10/20 06:06:41;;;;;;;8.20;4.80;;;;;;;;;;5062873;28;20071;-80
2021/10/20 06:09:06;;;;;;;8.05;4.90;;;;;;;;;;5093442;28;20067;-80
2021/10/20 06:11:32;;;;;;;6.40;4.55;;;;;;;;;;5087354;28;20063;-80
2021/10/20 06:13:58;;;;;;;7.68;5.05;;;;;;;;;;5086640;28;20036;-80
2021/10/20 06:16:23;;;;;;;6.35;4.55;;;;;;;;;;5088546;28;20046;-80
2021/10/20 06:18:49;;;;;;;7.18;5.20;;;;;;;;;;5090003;28;20030;-80
2021/10/20 06:21:14;;;;;;;7.47;4.80;;;;;;;;;;5085526;28;20035;-79
2021/10/20 06:23:39;;;;;;;8.30;4.85;;;;;;;;;;5081566;28;20498;-80
2021/10/20 06:26:05;;;;;;;7.78;5.07;;;;;;;;;;5088571;28;20098;-80
2021/10/20 06:28:30;;;;;;;6.28;4.75;;;;;;;;;;5098408;28;20028;-80
2021/10/20 06:30:56;;;;;;;9.50;5.05;;;;;;;;;;5097807;28;20025;-79
2021/10/20 06:33:21;;;;;;;8.75;5.55;;;;;;;;;;5077436;28;20040;-80
2021/10/20 06:35:47;;;;;;;8.43;5.45;;;;;;;;;;5097147;28;20051;-80
2021/10/20 06:38:12;;;;;;;11.20;5.15;;;;;;;;;;5084731;28;20402;-80
2021/10/20 06:40:38;;;;;;;7.20;5.05;;;;;;;;;;5101377;28;20397;-80
2021/10/20 06:43:03;;;;;;;8.27;5.05;;;;;;;;;;5081858;28;20091;-80
2021/10/20 06:45:29;;;;;;;6.88;4.95;;;;;;;;;;5093430;28;20605;-80
2021/10/20 06:47:55;;;;;;;6.72;4.97;;;;;;;;;;5100354;28;20028;-80
2021/10/20 06:50:20;;;;;;;9.57;5.45;;;;;;;;;;5099260;28;20512;-79
2021/10/20 06:52:46;;;;;;;9.07;4.78;;;;;;;;;;5103661;28;20539;-80
2021/10/20 06:55:12;;;;;;;7.65;5.15;;;;;;;;;;5092119;28;20502;-80
2021/10/20 06:57:39;;;;;;;8.93;5.07;;;;;;;;;;5102241;28;20016;-80
2021/10/20 07:00:06;;;;;;;8.23;4.95;;;;;;;;;;5091402;28;20021;-80
2021/10/20 07:02:32;;;;;;;8.35;5.22;;;;;;;;;;5104776;28;20032;-80
2021/10/20 07:04:57;;;;;;;6.00;4.78;;;;;;;;;;5100242;28;20032;-80
2021/10/20 07:07:22;;;;;;;8.05;4.95;;;;;;;;;;5086584;28;20402;-80
2021/10/20 07:09:48;;;;;;;8.65;4.78;;;;;;;;;;5099406;28;20027;-79
2021/10/20 07:12:14;;;;;;;6.97;4.55;;;;;;;;;;5106253;28;20093;-80
2021/10/20 07:14:39;;;;;;;8.98;5.40;;;;;;;;;;5101640;28;20030;-80
2021/10/20 07:17:08;;;;;;;8.20;5.00;;;;;;;;;;5074897;28;20024;-80
2021/10/20 07:19:36;;;;;;;7.43;4.72;;;;;;;;;;5090511;28;20032;-79
2021/10/20 07:22:02;;;;;;;9.27;5.40;;;;;;;;;;5098373;28;20032;-79
2021/10/20 07:24:27;;;;;;;7.55;5.13;;;;;;;;;;5086188;28;20031;-80
2021/10/20 07:26:53;;;;;;;7.50;5.30;;;;;;;;;;5082172;28;20036;-80
2021/10/20 07:29:18;;;;;;;9.57;5.50;;;;;;;;;;5080551;28;20154;-79
2021/10/20 07:31:44;;;;;;;9.18;5.50;;;;;;;;;;5101266;28;20555;-80
2021/10/20 07:34:09;;;;;;;9.80;5.15;;;;;;;;;;5070069;28;20023;-80
2021/10/20 07:36:36;;;;;;;9.05;5.25;;;;;;;;;;5099632;28;20395;-80
2021/10/20 07:39:02;;;;;;;6.57;5.47;;;;;;;;;;5103348;28;20387;-79
2021/10/20 07:41:27;;;;;;;7.82;5.65;;;;;;;;;;5101917;28;20032;-80
2021/10/20 07:43:53;;;;;;;10.88;5.63;;;;;;;;;;5094997;28;20028;-80
2021/10/20 07:46:18;;;;;;;10.07;5.53;;;;;;;;;;5063918;28;20040;-79
2021/10/20 07:48:43;;;;;;;7.22;5.13;;;;;;;;;;5085911;28;20135;-80
2021/10/20 07:51:09;;;;;;;9.02;5.63;;;;;;;;;;5072047;28;20058;-80
2021/10/20 07:53:34;;;;;;;7.13;5.25;;;;;;;;;;5097294;28;20047;-79
2021/10/20 07:56:00;;;;;;;8.13;5.38;;;;;;;;;;5078910;28;20024;-80
2021/10/20 07:58:25;;;;;;;8.02;5.55;;;;;;;;;;5104861;28;20115;-80
2021/10/20 08:00:50;;;;;;;7.20;5.22;;;;;;;;;;5085957;28;20027;-80
2021/10/20 08:03:16;;;;;;;8.00;5.32;;;;;;;;;;5096756;28;20024;-79
2021/10/20 08:05:41;;;;;;;7.90;5.70;;;;;;;;;;5080460;28;20032;-80
2021/10/20 08:08:10;;;;;;;7.65;5.40;;;;;;;;;;5067737;28;20052;-80
2021/10/20 08:10:36;;;;;;;12.35;6.10;;;;;;;;;;5099118;28;20039;-80
2021/10/20 08:13:01;;;;;;;8.32;5.70;;;;;;;;;;5082705;28;20073;-79
2021/10/20 08:15:27;;;;;;;8.75;5.88;;;;;;;;;;5074102;28;20032;-80
2021/10/20 08:17:53;;;;;;;7.00;5.70;;;;;;;;;;5091309;28;20035;-80
2021/10/20 08:20:21;;;;;;;10.23;6.53;;;;;;;;;;5096408;28;20031;-80
2021/10/20 08:22:47;;;;;;;9.48;5.78;;;;;;;;;;5093556;28;20547;-80
2021/10/20 08:25:14;;;;;;;8.13;5.82;;;;;;;;;;5076011;28;20032;-80
2021/10/20 08:27:41;;;;;;;8.75;6.18;;;;;;;;;;5077125;28;20031;-79
2021/10/20 08:30:08;;;;;;;7.55;5.75;;;;;;;;;;5086758;28;20387;-80
2021/10/20 08:32:34;;;;;;;7.47;6.10;;;;;;;;;;5093777;28;20025;-80
2021/10/20 08:34:59;;;;;;;10.63;6.50;;;;;;;;;;5077478;28;20077;-80
2021/10/20 08:37:25;;;;;;;9.68;6.72;;;;;;;;;;5095147;28;20024;-80
2021/10/20 08:39:50;;;;;;;8.38;6.07;;;;;;;;;;5081174;28;20035;-80
2021/10/20 08:42:16;;;;;;;9.65;6.60;;;;;;;;;;5091137;28;20032;-80
2021/10/20 08:44:41;;;;;;;9.70;6.50;;;;;;;;;;5083035;28;20039;-80
2021/10/20 08:47:10;;;;;;;9.40;6.50;;;;;;;;;;5083545;28;20123;-80
2021/10/20 08:49:38;;;;;;;8.82;5.82;;;;;;;;;;5097684;28;20039;-79
2021/10/20 08:52:04;;;;;;;7.97;6.60;;;;;;;;;;5086446;28;20411;-80
2021/10/20 08:54:29;;;;;;;9.35;6.32;;;;;;;;;;5087021;28;20030;-79
2021/10/20 08:56:55;;;;;;;9.35;6.70;;;;;;;;;;5098345;28;20030;-80
2021/10/20 08:59:21;;;;;;;8.57;6.60;;;;;;;;;;5097504;28;20032;-80
2021/10/20 09:01:47;;;;;;;8.32;6.38;;;;;;;;;;5086478;28;20035;-80
2021/10/20 09:04:18;;;;;;;9.90;6.70;;;;;;;;;;5100986;28;20087;-80
2021/10/20 09:06:44;;;;;;;11.68;6.53;;;;;;;;;;5087929;28;20055;-80
2021/10/20 09:09:10;;;;;;;9.75;6.72;;;;;;;;;;5092023;28;20577;-79
2021/10/20 09:11:37;;;;;;;10.18;6.93;;;;;;;;;;5088914;28;20032;-80
2021/10/20 09:14:04;;;;;;;9.20;6.50;;;;;;;;;;5095101;28;20423;-80
2021/10/20 09:16:35;;;;;;;9.70;7.10;;;;;;;;;;5097061;28;20204;-80
2021/10/20 09:19:11;;;;;;;8.70;6.75;;;;;;;;;;5093852;28;20020;-80
2021/10/20 09:21:57;;;;;;;8.95;6.85;;;;;;;;;;5098026;28;20054;-80
2021/10/20 09:24:49;;;;;;;10.30;6.53;;;;;;;;;;5097212;28;20066;-80
2021/10/20 09:27:26;;;;;;;8.70;6.93;;;;;;;;;;5107953;27;20035;-80
2021/10/20 09:30:10;;;;;;;13.35;7.32;;;;;;;;;;5099731;28;20016;-79
2021/10/20 09:32:35;;;;;;;8.95;6.85;;;;;;;;;;5098048;28;20035;-79
2021/10/20 09:35:01;;;;;;;9.02;6.45;;;;;;;;;;5087883;28;20031;-79
2021/10/20 09:37:28;;;;;;;8.63;6.88;;;;;;;;;;5098000;28;20026;-80
2021/10/20 09:40:09;;;;;;;9.98;6.75;;;;;;;;;;5096573;28;20086;-80
2021/10/20 09:42:56;;;;;;;8.15;6.70;;;;;;;;;;5092860;28;20024;-79
2021/10/20 09:45:22;;;;;;;10.80;7.18;;;;;;;;;;5098952;28;20058;-80
2021/10/20 09:47:48;;;;;;;9.68;6.72;;;;;;;;;;5096307;28;20063;-79
2021/10/20 09:50:16;;;;;;;9.02;7.00;;;;;;;;;;5103407;28;20446;-80
2021/10/20 09:52:48;;;;;;;12.02;7.60;;;;;;;;;;5098709;28;20028;-79
2021/10/20 09:55:16;;;;;;;9.73;7.13;;;;;;;;;;5091415;28;20051;-79
2021/10/20 09:57:42;;;;;;;9.20;7.18;;;;;;;;;;5097210;28;20039;-80
2021/10/20 10:00:08;;;;;;;10.05;6.75;;;;;;;;;;5096409;28;20028;-79
2021/10/20 10:02:35;;;;;;;9.00;6.88;;;;;;;;;;5085769;28;20127;-80
2021/10/20 10:05:00;;;;;;;9.23;6.78;;;;;;;;;;5091930;28;20040;-79
2021/10/20 10:07:26;;;;;;;9.32;6.78;;;;;;;;;;5093894;28;20034;-79
2021/10/20 10:09:51;;;;;;;9.63;6.50;;;;;;;;;;5093232;28;20356;-79
2021/10/20 10:12:25;;;;;;;7.65;6.18;;;;;;;;;;5093539;28;20035;-80
2021/10/20 10:15:09;;;;;;;12.27;7.15;;;;;;;;;;5102274;28;20027;-80
2021/10/20 10:17:36;;;;;;;10.75;6.60;;;;;;;;;;5092546;28;20485;-80
2021/10/20 10:20:13;;;;;;;10.77;6.57;;;;;;;;;;5084322;28;20205;-80
2021/10/20 10:22:53;;;;;;;7.80;6.10;;;;;;;;;;5088487;28;20041;-80
2021/10/20 10:25:45;;;;;;;8.20;6.38;;;;;;;;;;5087077;28;20024;-80
2021/10/20 10:28:20;;;;;;;10.10;6.07;;;;;;;;;;5092238;28;20033;-80
2021/10/20 10:30:50;;;;;;;8.43;6.35;;;;;;;;;;5097496;28;20027;-79
2021/10/20 10:33:39;;;;;;;9.02;6.50;;;;;;;;;;5097943;28;20039;-79
2021/10/20 10:36:18;;;;;;;12.88;6.18;;;;;;;;;;5102344;28;20024;-79
2021/10/20 10:38:46;;;;;;;9.60;6.07;;;;;;;;;;5108632;28;20435;-80
2021/10/20 10:41:37;;;;;;;11.07;5.72;;;;;;;;;;5103747;28;20030;-79
2021/10/20 10:44:07;;;;;;;7.07;5.50;;;;;;;;;;5096196;28;20020;-80
2021/10/20 10:46:39;;;;;;;8.98;5.90;;;;;;;;;;5096293;28;20421;-80
2021/10/20 10:49:22;;;;;;;8.50;6.22;;;;;;;;;;5101419;28;20032;-80
2021/10/20 10:52:10;;;;;;;;;;;;;;;;;;5102681;28;20027;-80
2021/10/20 10:54:37;;;;;;;8.52;6.10;;;;;;;;;;5088692;28;19913;-79
2021/10/20 10:57:13;;;;;;;8.70;5.75;;;;;;;;;;5087672;27;20415;-80
2021/10/20 10:59:38;;;;;;;8.35;6.50;;;;;;;;;;5085511;28;20032;-79
2021/10/20 11:02:38;;;;;;;9.73;6.30;;;;;;;;;;5069168;28;20394;-79
2021/10/20 11:05:04;;;;;;;9.60;6.07;;;;;;;;;;5089652;28;20411;-80
2021/10/20 11:07:30;;;;;;;8.35;5.95;;;;;;;;;;5090026;28;20054;-80
2021/10/20 11:09:57;;;;;;;9.63;6.07;;;;;;;;;;5087387;28;20031;-80
2021/10/20 11:12:24;;;;;;;7.80;5.70;;;;;;;;;;5087064;28;20032;-79
2021/10/20 11:14:53;;;;;;;8.90;5.78;;;;;;;;;;5082623;28;20033;-79
2021/10/20 11:17:19;;;;;;;9.45;5.88;;;;;;;;;;5099047;28;20025;-79
2021/10/20 11:19:44;;;;;;;9.45;6.63;;;;;;;;;;5101090;27;20381;-80
2021/10/20 11:22:10;;;;;;;8.18;5.75;;;;;;;;;;5091459;28;20475;-80
2021/10/20 11:24:43;;;;;;;8.00;5.90;;;;;;;;;;5096916;28;20144;-80
2021/10/20 11:27:09;;;;;;;8.85;5.70;;;;;;;;;;5085894;28;20032;-80
2021/10/20 11:29:47;;;;;;;8.73;5.60;;;;;;;;;;5092450;28;20479;-79
2021/10/20 11:32:18;;;;;;;7.32;5.60;;;;;;;;;;5094003;28;20019;-79
2021/10/20 11:34:45;;;;;;;8.98;5.40;;;;;;;;;;5098938;28;20028;-80
2021/10/20 11:37:13;;;;;;;10.02;5.70;;;;;;;;;;5104623;28;20107;-79
2021/10/20 11:39:42;;;;;;;8.23;5.70;;;;;;;;;;5105345;28;20031;-80
2021/10/20 11:42:12;;;;;;;7.38;5.72;;;;;;;;;;5099007;28;20467;-79
2021/10/20 11:44:41;;;;;;;11.50;6.05;;;;;;;;;;5094811;28;20399;-81
2021/10/20 11:47:14;;;;;;;6.95;5.97;;;;;;;;;;5089771;28;20023;-82
2021/10/20 11:49:44;;;;;;;9.07;6.45;;;;;;;;;;5095868;28;20103;-81
2021/10/20 11:52:12;;;;;;;7.38;5.75;;;;;;;;;;5095536;28;20444;-80
2021/10/20 11:54:38;;;;;;;8.88;5.85;;;;;;;;;;5097811;28;20020;-82
2021/10/20 11:57:07;;;;;;;7.60;5.78;;;;;;;;;;5101398;28;20016;-81
2021/10/20 11:59:34;;;;;;;8.65;5.97;;;;;;;;;;5103105;28;20036;-81
2021/10/20 12:02:01;;;;;;;7.68;6.00;;;;;;;;;;5073593;28;20027;-81
2021/10/20 12:04:26;;;;;;;8.30;5.70;;;;;;;;;;5086484;28;20445;-82
2021/10/20 12:06:56;;;;;;;8.23;5.75;;;;;;;;;;5081891;28;21090;-81
2021/10/20 12:09:23;;;;;;;8.52;5.88;;;;;;;;;;5093023;28;20042;-81
2021/10/20 12:11:50;;;;;;;7.35;5.90;;;;;;;;;;5095172;28;20505;-82
2021/10/20 12:14:16;;;;;;;8.35;5.97;;;;;;;;;;5083436;28;20057;-81
2021/10/20 12:16:43;;;;;;;9.63;6.20;;;;;;;;;;5081202;28;20493;-81
2021/10/20 12:19:10;;;;;;;9.80;6.05;;;;;;;;;;5109614;28;20471;-81
2021/10/20 12:21:38;;;;;;;7.65;5.70;;;;;;;;;;5089812;28;20032;-81
2021/10/20 12:24:07;;;;;;;7.70;6.00;;;;;;;;;;5093919;28;20032;-81
2021/10/20 12:26:34;;;;;;;9.75;5.85;;;;;;;;;;5100835;28;20036;-82
2021/10/20 12:29:04;;;;;;;9.40;5.93;;;;;;;;;;5087231;28;20039;-81
2021/10/20 12:31:30;;;;;;;6.70;5.63;;;;;;;;;;5082615;28;20050;-81
2021/10/20 12:33:56;;;;;;;8.57;5.88;;;;;;;;;;5084239;28;20511;-81
2021/10/20 12:36:27;;;;;;;8.27;5.90;;;;;;;;;;5079042;28;20410;-81
2021/10/20 12:38:56;;;;;;;8.07;6.22;;;;;;;;;;5090934;28;20470;-81
2021/10/20 12:41:36;;;;;;;9.70;5.60;;;;;;;;;;5095789;28;20056;-82
2021/10/20 12:44:05;;;;;;;8.52;6.00;;;;;;;;;;5093650;28;20031;-80
2021/10/20 12:46:33;;;;;;;8.48;5.55;;;;;;;;;;5089664;28;20039;-82
2021/10/20 12:49:00;;;;;;;7.47;5.63;;;;;;;;;;5100158;28;20059;-81
2021/10/20 12:51:28;;;;;;;9.35;5.60;;;;;;;;;;5081054;28;20070;-80
2021/10/20 12:54:03;;;;;;;9.85;6.07;;;;;;;;;;5096478;28;20026;-82
2021/10/20 12:56:30;;;;;;;8.85;5.68;;;;;;;;;;5090424;28;20062;-81
2021/10/20 12:59:05;;;;;;;6.93;5.30;;;;;;;;;;5089710;28;20032;-82
2021/10/20 13:01:31;;;;;;;8.00;5.43;;;;;;;;;;5090717;28;20035;-81
2021/10/20 13:03:56;;;;;;;8.15;5.85;;;;;;;;;;5082848;28;20394;-81
2021/10/20 13:06:22;;;;;;;10.75;5.88;;;;;;;;;;5079142;28;20031;-81
2021/10/20 13:08:48;;;;;;;10.25;5.85;;;;;;;;;;5084320;28;20511;-81
2021/10/20 13:11:13;;;;;;;8.73;5.70;;;;;;;;;;5073972;28;20031;-80
2021/10/20 13:13:39;;;;;;;8.77;5.47;;;;;;;;;;5073843;28;20032;-81
2021/10/20 13:16:04;;;;;;;8.02;5.78;;;;;;;;;;5065637;28;20032;-81
2021/10/20 13:18:29;;;;;;;9.55;5.88;;;;;;;;;;5085553;28;20619;-81
2021/10/20 13:20:56;;;;;;;8.25;5.80;;;;;;;;;;5071523;28;20438;-80
2021/10/20 13:23:21;;;;;;;9.82;5.93;;;;;;;;;;5082078;28;20036;-79
2021/10/20 13:25:47;;;;;;;9.00;5.80;;;;;;;;;;5082994;28;20533;-81
2021/10/20 13:28:13;;;;;;;10.32;5.60;;;;;;;;;;5092428;28;20027;-80
2021/10/20 13:30:41;;;;;;;8.18;4.97;;;;;;;;;;5096571;28;20036;-79
2021/10/20 13:33:07;;;;;;;7.93;5.13;;;;;;;;;;5095749;28;20008;-80
2021/10/20 13:35:34;;;;;;;7.45;5.45;;;;;;;;;;5087454;28;20031;-81
2021/10/20 13:38:03;;;;;;;8.48;5.55;;;;;;;;;;5083089;28;20031;-79
2021/10/20 13:40:29;;;;;;;11.57;5.60;;;;;;;;;;5077904;28;20043;-79
2021/10/20 13:42:54;;;;;;;8.40;5.43;;;;;;;;;;5075188;28;20025;-81
2021/10/20 13:45:21;;;;;;;7.07;4.97;;;;;;;;;;5082256;28;20145;-79
2021/10/20 13:47:46;;;;;;;7.80;5.07;;;;;;;;;;5058894;28;20411;-82
2021/10/20 13:50:12;;;;;;;6.60;5.07;;;;;;;;;;5071356;28;20039;-79
2021/10/20 13:52:38;;;;;;;8.52;5.28;;;;;;;;;;5072169;28;20111;-81
2021/10/20 13:55:04;;;;;;;8.13;5.50;;;;;;;;;;5077215;28;20032;-79
2021/10/20 13:57:30;;;;;;;11.27;5.95;;;;;;;;;;5071069;28;20092;-80
2021/10/20 13:59:56;;;;;;;7.25;5.35;;;;;;;;;;5088845;28;20111;-80
2021/10/20 14:02:22;;;;;;;11.05;5.82;;;;;;;;;;5082949;28;20694;-81
2021/10/20 14:04:52;;;;;;;8.45;5.50;;;;;;;;;;5078968;28;20036;-79
2021/10/20 14:07:18;;;;;;;7.90;5.53;;;;;;;;;;5091510;28;20039;-81
2021/10/20 14:09:43;;;;;;;8.38;5.20;;;;;;;;;;5092059;28;20320;-80
2021/10/20 14:12:09;;;;;;;7.38;5.32;;;;;;;;;;5085151;28;20111;-80
2021/10/20 14:14:35;;;;;;;7.63;5.30;;;;;;;;;;5079241;28;20031;-79
2021/10/20 14:17:01;;;;;;;8.40;5.32;;;;;;;;;;5084192;28;20029;-80
2021/10/20 14:19:26;;;;;;;7.88;5.00;;;;;;;;;;5086680;28;20357;-80
2021/10/20 14:21:52;;;;;;;8.55;5.05;;;;;;;;;;5078173;28;20023;-80
2021/10/20 14:24:17;;;;;;;7.63;5.30;;;;;;;;;;5060751;28;20028;-80
2021/10/20 14:26:43;;;;;;;8.90;5.55;;;;;;;;;;5076744;28;20706;-80
2021/10/20 14:29:09;;;;;;;10.02;5.30;;;;;;;;;;5083067;28;20040;-80
2021/10/20 14:31:38;;;;;;;7.03;4.88;;;;;;;;;;5067624;28;20416;-80
2021/10/20 14:34:05;;;;;;;9.60;5.50;;;;;;;;;;5081753;28;20131;-80
2021/10/20 14:36:32;;;;;;;8.85;5.22;;;;;;;;;;5089284;28;20032;-81
2021/10/20 14:38:57;;;;;;;8.85;5.38;;;;;;;;;;5079361;28;20020;-80
2021/10/20 14:41:23;;;;;;;10.93;4.95;;;;;;;;;;5083277;28;20039;-80
2021/10/20 14:43:48;;;;;;;9.70;5.05;;;;;;;;;;5079906;28;20661;-82